sensor_id;sensor_type;location;lat;lon;timestamp;pressure;altitude;pressure_sealevel;temperature;humidity
62510;BME280;48558;48.242;11.654;2022-07-30T00:03:58;96253.84;;;15.69;100.00
62510;BME280;48558;48.242;11.654;2022-07-30T00:09:02;96247.50;;;15.63;100.00
62510;BME280;48558;48.242;11.654;2022-07-30T00:14:05;96253.06;;;15.52;100.00
62510;BME280;48558;48.242;11.654;2022-07-30T00:19:11;96252.31;;;15.57;100.00
62510;BME280;48558;48.242;11.654;2022-07-30T00:24:14;96238.09;;;15.49;100.00
62510;BME280;48558;48.242;11.654;2022-07-30T00:34:40;96232.22;;;15.58;100.00
62510;BME280;48558;48.242;11.654;2022-07-30T00:39:44;96231.75;;;15.54;100.00
62510;BME280;48558;48.242;11.654;2022-07-30T00:44:47;96235.81;;;15.37;100.00
62510;BME280;48558;48.242;11.654;2022-07-30T00:49:50;96235.56;;;15.46;100.00
62510;BME280;48558;48.242;11.654;2022-07-30T00:54:53;96229.72;;;15.55;100.00
62510;BME280;48558;48.242;11.654;2022-07-30T00:59:57;96222.38;;;15.46;100.00
62510;BME280;48558;48.242;11.654;2022-07-30T01:05:00;96233.28;;;15.44;100.00
62510;BME280;48558;48.242;11.654;2022-07-30T01:10:06;96235.81;;;15.48;100.00
62510;BME280;48558;48.242;11.654;2022-07-30T01:15:10;96228.69;;;15.52;100.00
62510;BME280;48558;48.242;11.654;2022-07-30T01:20:19;96230.97;;;15.54;100.00
62510;BME280;48558;48.242;11.654;2022-07-30T01:31:04;96216.25;;;15.48;100.00
62510;BME280;48558;48.242;11.654;2022-07-30T01:36:11;96215.50;;;15.47;100.00
62510;BME280;48558;48.242;11.654;2022-07-30T01:41:17;96212.22;;;15.38;100.00
62510;BME280;48558;48.242;11.654;2022-07-30T01:46:22;96225.66;;;15.33;100.00
62510;BME280;48558;48.242;11.654;2022-07-30T01:51:27;96217.03;;;15.43;100.00
62510;BME280;48558;48.242;11.654;2022-07-30T01:56:39;96222.84;;;15.50;100.00
62510;BME280;48558;48.242;11.654;2022-07-30T02:01:43;96210.94;;;15.44;100.00
62510;BME280;48558;48.242;11.654;2022-07-30T02:07:01;96219.28;;;15.72;100.00
62510;BME280;48558;48.242;11.654;2022-07-30T02:12:09;96213.47;;;15.53;100.00
62510;BME280;48558;48.242;11.654;2022-07-30T02:17:40;96230.72;;;15.52;100.00
62510;BME280;48558;48.242;11.654;2022-07-30T02:22:47;96221.84;;;15.37;100.00
62510;BME280;48558;48.242;11.654;2022-07-30T02:27:55;96231.25;;;15.33;100.00
62510;BME280;48558;48.242;11.654;2022-07-30T02:33:05;96230.00;;;15.12;100.00
62510;BME280;48558;48.242;11.654;2022-07-30T02:38:12;96236.06;;;15.05;100.00
62510;BME280;48558;48.242;11.654;2022-07-30T02:43:17;96228.19;;;14.98;100.00
62510;BME280;48558;48.242;11.654;2022-07-30T02:48:24;96221.84;;;14.81;100.00
62510;BME280;48558;48.242;11.654;2022-07-30T02:53:37;96220.84;;;15.01;100.00
62510;BME280;48558;48.242;11.654;2022-07-30T02:58:43;96209.19;;;14.86;100.00
62510;BME280;48558;48.242;11.654;2022-07-30T03:03:46;96223.13;;;15.13;100.00
62510;BME280;48558;48.242;11.654;2022-07-30T03:08:50;96216.53;;;15.05;100.00
62510;BME280;48558;48.242;11.654;2022-07-30T03:13:56;96217.28;;;15.22;100.00
62510;BME280;48558;48.242;11.654;2022-07-30T03:19:01;96215.75;;;15.27;100.00
62510;BME280;48558;48.242;11.654;2022-07-30T03:24:07;96226.69;;;15.30;100.00
62510;BME280;48558;48.242;11.654;2022-07-30T03:29:13;96221.63;;;15.23;100.00
62510;BME280;48558;48.242;11.654;2022-07-30T03:34:23;96211.47;;;15.15;100.00
62510;BME280;48558;48.242;11.654;2022-07-30T03:39:27;96216.03;;;15.12;100.00
62510;BME280;48558;48.242;11.654;2022-07-30T03:44:32;96199.00;;;14.99;100.00
62510;BME280;48558;48.242;11.654;2022-07-30T03:49:35;96238.34;;;15.07;100.00
62510;BME280;48558;48.242;11.654;2022-07-30T03:54:39;96237.34;;;15.04;100.00
62510;BME280;48558;48.242;11.654;2022-07-30T03:59:43;96242.44;;;15.06;100.00
62510;BME280;48558;48.242;11.654;2022-07-30T04:04:49;96238.88;;;15.05;100.00
62510;BME280;48558;48.242;11.654;2022-07-30T04:09:53;96252.09;;;15.21;100.00
62510;BME280;48558;48.242;11.654;2022-07-30T04:14:56;96256.38;;;15.06;100.00
62510;BME280;48558;48.242;11.654;2022-07-30T04:20:09;96261.69;;;15.09;100.00
62510;BME280;48558;48.242;11.654;2022-07-30T04:25:20;96260.94;;;15.03;100.00
62510;BME280;48558;48.242;11.654;2022-07-30T04:30:26;96273.13;;;15.11;100.00
62510;BME280;48558;48.242;11.654;2022-07-30T04:35:30;96275.16;;;15.22;100.00
62510;BME280;48558;48.242;11.654;2022-07-30T04:40:53;96277.72;;;15.53;100.00
62510;BME280;48558;48.242;11.654;2022-07-30T04:45:56;96282.28;;;15.51;100.00
62510;BME280;48558;48.242;11.654;2022-07-30T04:51:01;96298.06;;;15.65;100.00
62510;BME280;48558;48.242;11.654;2022-07-30T04:56:08;96285.59;;;15.66;100.00
62510;BME280;48558;48.242;11.654;2022-07-30T05:01:18;96290.88;;;16.02;100.00
62510;BME280;48558;48.242;11.654;2022-07-30T05:06:24;96284.22;;;16.28;100.00
62510;BME280;48558;48.242;11.654;2022-07-30T05:11:27;96282.88;;;16.45;100.00
62510;BME280;48558;48.242;11.654;2022-07-30T05:16:31;96297.09;;;16.58;100.00
62510;BME280;48558;48.242;11.654;2022-07-30T05:21:37;96288.50;;;16.92;100.00
62510;BME280;48558;48.242;11.654;2022-07-30T05:26:40;96306.19;;;16.70;100.00
62510;BME280;48558;48.242;11.654;2022-07-30T05:31:43;96300.91;;;16.55;100.00
62510;BME280;48558;48.242;11.654;2022-07-30T05:36:47;96312.22;;;16.91;100.00
62510;BME280;48558;48.242;11.654;2022-07-30T05:41:50;96305.00;;;17.01;100.00
62510;BME280;48558;48.242;11.654;2022-07-30T05:46:53;96308.72;;;16.73;100.00
62510;BME280;48558;48.242;11.654;2022-07-30T05:51:57;96314.28;;;16.85;100.00
62510;BME280;48558;48.242;11.654;2022-07-30T05:57:02;96322.16;;;16.81;100.00
62510;BME280;48558;48.242;11.654;2022-07-30T06:02:06;96316.63;;;16.75;100.00
62510;BME280;48558;48.242;11.654;2022-07-30T06:07:15;96327.69;;;16.97;100.00
62510;BME280;48558;48.242;11.654;2022-07-30T06:12:28;96332.53;;;16.97;100.00
62510;BME280;48558;48.242;11.654;2022-07-30T06:17:32;96344.00;;;16.93;100.00
62510;BME280;48558;48.242;11.654;2022-07-30T06:23:01;96349.38;;;16.86;100.00
62510;BME280;48558;48.242;11.654;2022-07-30T06:28:05;96353.75;;;17.27;100.00
62510;BME280;48558;48.242;11.654;2022-07-30T06:33:29;96355.25;;;17.75;100.00
62510;BME280;48558;48.242;11.654;2022-07-30T06:38:34;96365.34;;;17.83;100.00
62510;BME280;48558;48.242;11.654;2022-07-30T06:43:39;96363.31;;;17.49;100.00
62510;BME280;48558;48.242;11.654;2022-07-30T06:48:42;96371.72;;;17.49;100.00
62510;BME280;48558;48.242;11.654;2022-07-30T06:53:46;96376.31;;;17.46;100.00
62510;BME280;48558;48.242;11.654;2022-07-30T06:58:50;96376.50;;;17.59;100.00
62510;BME280;48558;48.242;11.654;2022-07-30T07:03:54;96381.88;;;17.87;100.00
62510;BME280;48558;48.242;11.654;2022-07-30T07:08:59;96388.22;;;18.23;100.00
62510;BME280;48558;48.242;11.654;2022-07-30T07:14:06;96386.47;;;18.20;100.00
62510;BME280;48558;48.242;11.654;2022-07-30T07:19:13;96392.28;;;17.97;100.00
62510;BME280;48558;48.242;11.654;2022-07-30T07:24:39;96395.81;;;18.28;100.00
62510;BME280;48558;48.242;11.654;2022-07-30T07:29:43;96386.72;;;18.46;99.45
62510;BME280;48558;48.242;11.654;2022-07-30T07:35:09;96381.63;;;18.93;97.98
62510;BME280;48558;48.242;11.654;2022-07-30T07:40:14;96379.06;;;19.13;94.67
62510;BME280;48558;48.242;11.654;2022-07-30T07:45:17;96383.31;;;19.01;91.87
62510;BME280;48558;48.242;11.654;2022-07-30T08:56:35;96381.00;;;21.55;67.22
62510;BME280;48558;48.242;11.654;2022-07-30T09:01:39;96387.66;;;21.32;68.95
62510;BME280;48558;48.242;11.654;2022-07-30T09:06:42;96395.50;;;22.76;61.90
62510;BME280;48558;48.242;11.654;2022-07-30T09:11:45;96391.16;;;23.03;61.53
62510;BME280;48558;48.242;11.654;2022-07-30T09:16:55;96393.66;;;23.07;60.84
62510;BME280;48558;48.242;11.654;2022-07-30T09:22:00;96395.22;;;22.38;62.84
62510;BME280;48558;48.242;11.654;2022-07-30T09:27:03;96384.66;;;24.40;59.64
62510;BME280;48558;48.242;11.654;2022-07-30T09:32:07;96400.94;;;22.74;59.42
62510;BME280;48558;48.242;11.654;2022-07-30T09:42:19;96385.75;;;22.84;55.43
62510;BME280;48558;48.242;11.654;2022-07-30T09:47:30;96386.06;;;23.96;53.10
62510;BME280;48558;48.242;11.654;2022-07-30T09:52:35;96379.34;;;24.29;52.67
62510;BME280;48558;48.242;11.654;2022-07-30T09:57:57;96383.66;;;23.49;52.66
62510;BME280;48558;48.242;11.654;2022-07-30T10:03:21;96382.19;;;24.44;49.97
62510;BME280;48558;48.242;11.654;2022-07-30T10:08:50;96393.25;;;23.46;53.66
62510;BME280;48558;48.242;11.654;2022-07-30T10:13:55;96380.88;;;23.21;51.59
62510;BME280;48558;48.242;11.654;2022-07-30T10:18:59;96378.94;;;23.08;51.41
62510;BME280;48558;48.242;11.654;2022-07-30T10:24:03;96381.56;;;22.78;47.74
62510;BME280;48558;48.242;11.654;2022-07-30T10:29:08;96392.50;;;23.45;48.30
62510;BME280;48558;48.242;11.654;2022-07-30T10:34:18;96372.00;;;24.26;43.24
62510;BME280;48558;48.242;11.654;2022-07-30T10:39:41;96389.09;;;25.19;43.55
62510;BME280;48558;48.242;11.654;2022-07-30T10:50:20;96390.44;;;24.12;43.07
62510;BME280;48558;48.242;11.654;2022-07-30T10:55:29;96386.06;;;23.88;44.17
62510;BME280;48558;48.242;11.654;2022-07-30T11:22:25;96368.28;;;25.24;38.05
62510;BME280;48558;48.242;11.654;2022-07-30T11:27:43;96365.31;;;25.06;38.56
62510;BME280;48558;48.242;11.654;2022-07-30T11:32:51;96354.22;;;25.80;37.62
62510;BME280;48558;48.242;11.654;2022-07-30T11:38:09;96359.22;;;25.18;38.55
62510;BME280;48558;48.242;11.654;2022-07-30T11:43:23;96358.84;;;25.13;39.63
62510;BME280;48558;48.242;11.654;2022-07-30T11:48:43;96361.84;;;23.64;41.09
62510;BME280;48558;48.242;11.654;2022-07-30T11:54:13;96359.44;;;22.69;41.74
62510;BME280;48558;48.242;11.654;2022-07-30T11:59:18;96364.13;;;22.87;43.34
62510;BME280;48558;48.242;11.654;2022-07-30T12:04:23;96377.94;;;22.70;42.66
62510;BME280;48558;48.242;11.654;2022-07-30T12:09:28;96379.84;;;22.47;41.86
62510;BME280;48558;48.242;11.654;2022-07-30T12:14:36;96376.13;;;24.17;39.64
62510;BME280;48558;48.242;11.654;2022-07-30T12:19:45;96368.75;;;24.60;41.43
62510;BME280;48558;48.242;11.654;2022-07-30T12:24:50;96369.34;;;25.43;37.21
62510;BME280;48558;48.242;11.654;2022-07-30T12:30:09;96371.38;;;24.12;37.65
62510;BME280;48558;48.242;11.654;2022-07-30T12:35:14;96362.38;;;25.76;37.53
62510;BME280;48558;48.242;11.654;2022-07-30T12:52:40;96362.56;;;24.31;35.93
62510;BME280;48558;48.242;11.654;2022-07-30T12:57:58;96361.53;;;24.81;34.40
62510;BME280;48558;48.242;11.654;2022-07-30T13:03:26;96356.00;;;26.75;34.05
62510;BME280;48558;48.242;11.654;2022-07-30T13:13:53;96354.13;;;23.65;37.48
62510;BME280;48558;48.242;11.654;2022-07-30T13:18:57;96359.41;;;23.61;38.49
62510;BME280;48558;48.242;11.654;2022-07-30T13:24:00;96363.66;;;25.51;34.69
62510;BME280;48558;48.242;11.654;2022-07-30T13:29:04;96366.59;;;25.21;36.95
62510;BME280;48558;48.242;11.654;2022-07-30T13:34:09;96353.47;;;25.48;33.75
62510;BME280;48558;48.242;11.654;2022-07-30T13:39:16;96351.72;;;25.52;33.07
62510;BME280;48558;48.242;11.654;2022-07-30T13:44:19;96358.78;;;25.29;34.62
62510;BME280;48558;48.242;11.654;2022-07-30T13:49:22;96349.84;;;24.09;35.54
62510;BME280;48558;48.242;11.654;2022-07-30T13:54:28;96329.84;;;24.53;34.90
62510;BME280;48558;48.242;11.654;2022-07-30T13:59:32;96334.75;;;24.52;34.60
62510;BME280;48558;48.242;11.654;2022-07-30T14:04:36;96336.63;;;23.97;36.20
62510;BME280;48558;48.242;11.654;2022-07-30T14:09:39;96346.22;;;23.28;37.01
62510;BME280;48558;48.242;11.654;2022-07-30T14:14:48;96327.69;;;24.83;34.06
62510;BME280;48558;48.242;11.654;2022-07-30T14:19:54;96330.19;;;24.79;33.29
62510;BME280;48558;48.242;11.654;2022-07-30T14:24:58;96337.19;;;25.48;32.36
62510;BME280;48558;48.242;11.654;2022-07-30T14:30:04;96318.16;;;26.23;31.19
62510;BME280;48558;48.242;11.654;2022-07-30T14:35:08;96326.91;;;26.17;32.80
62510;BME280;48558;48.242;11.654;2022-07-30T14:40:12;96324.13;;;24.83;33.54
62510;BME280;48558;48.242;11.654;2022-07-30T14:45:16;96309.25;;;24.52;35.81
62510;BME280;48558;48.242;11.654;2022-07-30T14:50:22;96317.25;;;25.08;33.14
62510;BME280;48558;48.242;11.654;2022-07-30T14:55:26;96307.25;;;25.07;33.42
62510;BME280;48558;48.242;11.654;2022-07-30T15:00:29;96309.84;;;24.20;34.55
62510;BME280;48558;48.242;11.654;2022-07-30T15:05:46;96305.75;;;25.06;33.01
62510;BME280;48558;48.242;11.654;2022-07-30T15:10:53;96308.31;;;23.97;34.97
62510;BME280;48558;48.242;11.654;2022-07-30T15:15:59;96317.66;;;25.05;33.81
62510;BME280;48558;48.242;11.654;2022-07-30T15:21:03;96315.03;;;24.99;32.99
62510;BME280;48558;48.242;11.654;2022-07-30T15:26:06;96313.03;;;24.09;34.73
62510;BME280;48558;48.242;11.654;2022-07-30T15:31:09;96323.25;;;24.58;34.98
62510;BME280;48558;48.242;11.654;2022-07-30T15:36:12;96316.00;;;26.06;32.34
62510;BME280;48558;48.242;11.654;2022-07-30T15:41:14;96315.47;;;24.73;34.25
62510;BME280;48558;48.242;11.654;2022-07-30T15:46:19;96324.72;;;23.83;35.13
62510;BME280;48558;48.242;11.654;2022-07-30T15:51:22;96318.28;;;23.67;36.07
62510;BME280;48558;48.242;11.654;2022-07-30T15:56:25;96325.72;;;24.31;35.49
62510;BME280;48558;48.242;11.654;2022-07-30T16:01:30;96334.97;;;24.24;35.35
62510;BME280;48558;48.242;11.654;2022-07-30T16:06:33;96314.16;;;24.59;36.47
62510;BME280;48558;48.242;11.654;2022-07-30T16:11:37;96312.50;;;24.26;34.41
62510;BME280;48558;48.242;11.654;2022-07-30T16:16:40;96319.59;;;23.82;35.37
62510;BME280;48558;48.242;11.654;2022-07-30T16:21:44;96325.81;;;23.72;36.89
62510;BME280;48558;48.242;11.654;2022-07-30T16:26:47;96323.06;;;24.40;35.95
62510;BME280;48558;48.242;11.654;2022-07-30T16:31:50;96323.53;;;23.63;37.91
62510;BME280;48558;48.242;11.654;2022-07-30T16:36:53;96321.00;;;22.94;38.79
62510;BME280;48558;48.242;11.654;2022-07-30T16:41:56;96322.53;;;22.67;38.95
62510;BME280;48558;48.242;11.654;2022-07-30T16:47:00;96331.16;;;22.61;40.06
62510;BME280;48558;48.242;11.654;2022-07-30T16:52:03;96334.72;;;22.62;39.50
62510;BME280;48558;48.242;11.654;2022-07-30T16:57:07;96326.44;;;22.64;39.33
62510;BME280;48558;48.242;11.654;2022-07-30T17:02:11;96323.44;;;22.33;40.02
62510;BME280;48558;48.242;11.654;2022-07-30T17:07:15;96337.06;;;22.43;41.24
62510;BME280;48558;48.242;11.654;2022-07-30T17:12:18;96335.63;;;22.28;41.85
62510;BME280;48558;48.242;11.654;2022-07-30T17:17:26;96338.84;;;22.12;41.52
62510;BME280;48558;48.242;11.654;2022-07-30T17:22:30;96344.53;;;21.91;42.24
62510;BME280;48558;48.242;11.654;2022-07-30T17:27:33;96341.25;;;21.87;42.78
62510;BME280;48558;48.242;11.654;2022-07-30T17:32:39;96346.16;;;22.07;41.89
62510;BME280;48558;48.242;11.654;2022-07-30T17:37:42;96349.13;;;22.02;42.66
62510;BME280;48558;48.242;11.654;2022-07-30T17:42:46;96347.97;;;21.97;43.21
62510;BME280;48558;48.242;11.654;2022-07-30T17:47:49;96346.28;;;21.81;43.32
62510;BME280;48558;48.242;11.654;2022-07-30T17:52:53;96354.19;;;21.62;43.21
62510;BME280;48558;48.242;11.654;2022-07-30T17:57:57;96354.66;;;21.40;43.80
62510;BME280;48558;48.242;11.654;2022-07-30T18:03:01;96354.91;;;21.29;44.46
62510;BME280;48558;48.242;11.654;2022-07-30T18:08:05;96351.41;;;21.36;43.93
62510;BME280;48558;48.242;11.654;2022-07-30T18:13:08;96356.66;;;21.32;44.47
62510;BME280;48558;48.242;11.654;2022-07-30T18:18:28;96355.66;;;21.29;44.95
62510;BME280;48558;48.242;11.654;2022-07-30T18:23:32;96357.56;;;21.14;45.50
62510;BME280;48558;48.242;11.654;2022-07-30T18:28:36;96363.44;;;21.03;47.39
62510;BME280;48558;48.242;11.654;2022-07-30T18:33:39;96361.16;;;20.88;52.69
62510;BME280;48558;48.242;11.654;2022-07-30T18:38:42;96356.56;;;20.46;54.28
62510;BME280;48558;48.242;11.654;2022-07-30T18:43:53;96370.19;;;20.29;56.04
62510;BME280;48558;48.242;11.654;2022-07-30T18:48:57;96384.13;;;20.08;57.17
62510;BME280;48558;48.242;11.654;2022-07-30T18:54:20;96375.09;;;19.96;54.16
62510;BME280;48558;48.242;11.654;2022-07-30T18:59:24;96402.09;;;19.68;56.58
62510;BME280;48558;48.242;11.654;2022-07-30T19:04:30;96399.59;;;19.64;56.41
62510;BME280;48558;48.242;11.654;2022-07-30T19:09:34;96410.53;;;19.68;56.57
62510;BME280;48558;48.242;11.654;2022-07-30T19:14:41;96419.88;;;19.57;57.55
62510;BME280;48558;48.242;11.654;2022-07-30T19:19:47;96427.22;;;19.47;60.80
62510;BME280;48558;48.242;11.654;2022-07-30T19:24:51;96430.69;;;19.34;61.46
62510;BME280;48558;48.242;11.654;2022-07-30T19:29:55;96437.56;;;19.15;63.41
62510;BME280;48558;48.242;11.654;2022-07-30T19:34:58;96418.75;;;19.04;62.96
62510;BME280;48558;48.242;11.654;2022-07-30T19:40:05;96441.72;;;19.08;63.93
62510;BME280;48558;48.242;11.654;2022-07-30T19:45:08;96437.19;;;19.00;65.98
62510;BME280;48558;48.242;11.654;2022-07-30T19:50:15;96433.38;;;18.78;67.53
62510;BME280;48558;48.242;11.654;2022-07-30T19:55:18;96441.47;;;18.82;68.03
62510;BME280;48558;48.242;11.654;2022-07-30T20:00:36;96457.63;;;19.00;65.23
62510;BME280;48558;48.242;11.654;2022-07-30T20:05:42;96464.53;;;18.75;77.03
62510;BME280;48558;48.242;11.654;2022-07-30T20:10:59;96458.00;;;18.37;81.55
62510;BME280;48558;48.242;11.654;2022-07-30T20:16:04;96453.81;;;18.14;95.66
62510;BME280;48558;48.242;11.654;2022-07-30T20:21:14;96457.78;;;18.00;100.00
62510;BME280;48558;48.242;11.654;2022-07-30T20:26:20;96456.66;;;17.79;100.00
62510;BME280;48558;48.242;11.654;2022-07-30T20:31:31;96457.44;;;17.74;100.00
62510;BME280;48558;48.242;11.654;2022-07-30T20:36:37;96459.41;;;17.32;100.00
62510;BME280;48558;48.242;11.654;2022-07-30T20:41:40;96469.66;;;17.19;100.00
62510;BME280;48558;48.242;11.654;2022-07-30T20:46:45;96477.03;;;17.27;97.82
62510;BME280;48558;48.242;11.654;2022-07-30T20:51:49;96480.91;;;17.08;100.00
62510;BME280;48558;48.242;11.654;2022-07-30T20:56:55;96488.81;;;17.04;100.00
62510;BME280;48558;48.242;11.654;2022-07-30T21:01:58;96494.66;;;17.06;100.00
62510;BME280;48558;48.242;11.654;2022-07-30T21:07:05;96504.59;;;17.07;100.00
62510;BME280;48558;48.242;11.654;2022-07-30T21:12:08;96485.84;;;16.68;100.00
62510;BME280;48558;48.242;11.654;2022-07-30T21:17:14;96491.94;;;16.50;100.00
62510;BME280;48558;48.242;11.654;2022-07-30T21:22:18;96493.22;;;16.33;100.00
62510;BME280;48558;48.242;11.654;2022-07-30T21:27:23;96502.63;;;16.24;100.00
62510;BME280;48558;48.242;11.654;2022-07-30T21:32:31;96505.13;;;15.83;100.00
62510;BME280;48558;48.242;11.654;2022-07-30T21:37:36;96497.16;;;15.60;100.00
62510;BME280;48558;48.242;11.654;2022-07-30T21:42:44;96487.69;;;15.41;100.00
62510;BME280;48558;48.242;11.654;2022-07-30T21:47:50;96496.81;;;15.36;100.00
62510;BME280;48558;48.242;11.654;2022-07-30T21:52:53;96496.56;;;15.28;100.00
62510;BME280;48558;48.242;11.654;2022-07-30T21:57:56;96499.13;;;15.37;100.00
62510;BME280;48558;48.242;11.654;2022-07-30T22:02:59;96498.09;;;15.35;100.00
62510;BME280;48558;48.242;11.654;2022-07-30T22:08:17;96501.84;;;15.20;100.00
62510;BME280;48558;48.242;11.654;2022-07-30T22:13:23;96505.56;;;15.06;100.00
62510;BME280;48558;48.242;11.654;2022-07-30T22:18:33;96503.81;;;15.03;100.00
62510;BME280;48558;48.242;11.654;2022-07-30T22:23:36;96514.34;;;14.88;100.00
62510;BME280;48558;48.242;11.654;2022-07-30T22:28:39;96495.00;;;14.74;100.00
62510;BME280;48558;48.242;11.654;2022-07-30T22:33:42;96496.25;;;14.67;100.00
62510;BME280;48558;48.242;11.654;2022-07-30T22:38:45;96502.16;;;14.80;100.00
62510;BME280;48558;48.242;11.654;2022-07-30T22:44:00;96502.41;;;14.82;100.00
62510;BME280;48558;48.242;11.654;2022-07-30T22:49:03;96505.63;;;14.70;100.00
62510;BME280;48558;48.242;11.654;2022-07-30T22:54:09;96481.63;;;14.46;100.00
62510;BME280;48558;48.242;11.654;2022-07-30T22:59:14;96503.94;;;14.52;100.00
62510;BME280;48558;48.242;11.654;2022-07-30T23:04:37;96496.50;;;14.38;100.00
62510;BME280;48558;48.242;11.654;2022-07-30T23:09:41;96495.34;;;14.19;100.00
62510;BME280;48558;48.242;11.654;2022-07-30T23:14:53;96503.00;;;14.29;100.00
62510;BME280;48558;48.242;11.654;2022-07-30T23:19:57;96499.03;;;14.36;100.00
62510;BME280;48558;48.242;11.654;2022-07-30T23:25:00;96517.06;;;14.40;100.00
62510;BME280;48558;48.242;11.654;2022-07-30T23:30:05;96498.75;;;14.34;100.00
62510;BME280;48558;48.242;11.654;2022-07-30T23:35:08;96500.53;;;14.37;100.00
62510;BME280;48558;48.242;11.654;2022-07-30T23:40:12;96498.56;;;14.43;100.00
62510;BME280;48558;48.242;11.654;2022-07-30T23:45:16;96492.81;;;14.21;100.00
62510;BME280;48558;48.242;11.654;2022-07-30T23:50:21;96497.34;;;14.18;100.00
62510;BME280;48558;48.242;11.654;2022-07-30T23:55:25;96496.53;;;14.12;100.00
